• Join FlightAware (Why Join?)
  • Login
  • US Flag 
05:15AM EDT


 

Airport Tracker/Info


-or-


 

Live Flight TrackerFlight Track Log ✈ SWA394 ✈ 18-Aug-2014 ✈ KBWI - KPBI

Flight Track Log - Related Links

Times and Time Zones

All times are in EDT time to prevent confusion due to time zone crossing. See the SWA394 flight status page for this flight to view local times or setup timezone preferences in your user account.

Time Position Orientation Groundspeed Altitude Reporting Facility
EDT Latitude Longitude Course Direction KTS MPH feet Rate Location/Type
01:32PM 39.1500 -76.6000 175° South 211 243 2,300  Level Potomac TRACON
01:33PM 38.1351 -76.6603 171° South  Level FlightAware Approximate
01:33PM 39.1000 -76.5333 134° Southeast 249 287 4,500  Level Potomac TRACON
01:34PM 38.0322 -76.6436 174° South  Level FlightAware Approximate
01:34PM 39.0333 -76.4667 142° Southeast 285 328 7,000  Level Potomac TRACON
01:35PM 37.9289 -76.6333 180° South  Level FlightAware Approximate
01:35PM 38.9833 -76.4000 134° Southeast 300 345 9,300  Level Potomac TRACON
01:36PM 37.8259 -76.6199 172° South  Level FlightAware Approximate
01:36PM 38.9000 -76.4333 197° South 308 354 10,800  Level Potomac TRACON
01:37PM 37.7233 -76.6012 172° South  Level FlightAware Approximate
01:37PM 38.8333 -76.4833 210° Southwest 332 382 12,900  Level Potomac TRACON
01:38PM 37.6177 -76.5901 175° South  Level FlightAware Approximate
01:38PM 38.7994 -76.5158 217° Southwest 326 375 13,500  Level Washington Center
01:39PM 38.7175 -76.5886 215° Southwest 355 409 15,400 1,920 Climbing Washington Center
01:40PM 38.6308 -76.6633 214° Southwest 371 427 17,500 2,160 Climbing Washington Center
01:41PM 38.5144 -76.7206 201° Southwest 384 442 19,900 1,980 Climbing Washington Center
01:42PM 38.4036 -76.7044 174° South 393 452 21,700 1,500 Climbing Washington Center
01:43PM 38.2986 -76.6886 173° South 399 459 23,100 1,320 Climbing Washington Center
01:44PM 38.1836 -76.6742 174° South 413 475 24,500 1,380 Climbing Washington Center
01:45PM 38.0417 -76.6547 174° South 424 488 26,000 1,320 Climbing Washington Center
01:46PM 37.9208 -76.6406 175° South 434 499 27,400 1,140 Climbing Washington Center
01:47PM 37.7989 -76.6247 174° South 436 502 28,400 1,080 Climbing Washington Center
01:48PM 37.6733 -76.6078 174° South 447 514 29,700 1,020 Climbing Washington Center
01:49PM 37.5483 -76.5919 174° South 447 514 30,600 960 Climbing Washington Center
01:50PM 37.4214 -76.5842 177° South 452 520 31,800 1,080 Climbing Washington Center
01:51PM 37.2775 -76.6300 194° South 446 513 32,800 960 Climbing Washington Center
01:52PM 37.1558 -76.6681 194° South 446 513 33,800 540 Climbing Washington Center
01:53PM 37.0358 -76.7072 195° South 445 512 34,000 60 Climbing Washington Center
01:54PM 36.9147 -76.7442 194° South 446 513 34,000  Level Washington Center
01:55PM 36.7944 -76.7811 194° South 446 513 34,000  Level Washington Center
01:57PM 36.6742 -76.8183 194° South 446 513 34,000  Level Washington Center
01:58PM 36.5297 -76.8633 194° South 446 513 34,000 -60 Level Washington Center
01:59PM 36.4056 -76.9017 194° South 447 514 33,900 -60 Descending Washington Center
02:00PM 36.2858 -76.9389 194° South 447 514 33,900  Level Washington Center
02:01PM 36.1650 -76.9767 194° South 448 516 33,900  Level Washington Center
02:02PM 36.0433 -77.0122 193° South 448 516 33,900  Level Washington Center
02:03PM 35.9228 -77.0497 194° South 448 516 33,900  Level Washington Center
02:04PM 35.7775 -77.0931 194° South 447 514 33,900  Level Washington Center
02:05PM 35.6622 -77.1278 194° South 449 517 34,000  Climbing Washington Center
02:06PM 35.5392 -77.1628 193° South 449 517 34,000  Level Washington Center
02:07PM 35.4186 -77.2011 195° South 449 517 34,000  Level Washington Center
02:08PM 35.2736 -77.2442 194° South 447 514 34,000  Level Washington Center
02:09PM 35.1514 -77.2803 194° South 448 516 34,000  Level Washington Center
02:10PM 35.0292 -77.3167 194° South 448 516 34,000  Level Washington Center
02:11PM 34.9064 -77.3533 194° South 450 518 34,000  Level Washington Center
02:12PM 34.7753 -77.3917 194° South 450 518 34,000  Level Washington Center
02:13PM 34.6533 -77.4275 194° South 451 519 34,000 -60 Level Washington Center
02:14PM 34.5319 -77.4647 194° South 451 519 33,900 -60 Descending Washington Center
02:15PM 34.4117 -77.5036 195° South 449 517 33,900  Level Washington Center
02:16PM 34.2672 -77.5511 195° South 449 517 33,900  Level Washington Center
02:17PM 34.1461 -77.5889 194° South 448 516 33,900 60 Level Washington Center
02:18PM 34.0761 -77.6078 193° South 449 517 34,000 60 Climbing Jacksonville Center
02:19PM 33.9550 -77.6528 197° South 449 517 34,000  Level Jacksonville Center
02:20PM 33.8375 -77.6872 194° South 449 517 34,000  Level Jacksonville Center
02:21PM 33.7178 -77.7217 193° South 447 514 34,000  Level Jacksonville Center
02:22PM 33.6089 -77.7606 197° South 447 514 34,000 -60 Level Jacksonville Center
02:23PM 33.4875 -77.8000 195° South 447 514 33,900 -60 Descending Jacksonville Center
02:24PM 33.3700 -77.8367 195° South 447 514 33,900  Level Jacksonville Center
02:25PM 33.2483 -77.8733 194° South 447 514 33,900  Level Jacksonville Center
02:26PM 33.1308 -77.9119 195° South 447 514 33,900  Level Jacksonville Center
02:27PM 33.0114 -77.9508 195° South 447 514 34,000  Climbing Jacksonville Center
02:28PM 32.8917 -77.9847 193° South 447 514 34,000  Level Jacksonville Center
02:29PM 32.7722 -78.0233 195° South 452 520 34,000 -60 Level Jacksonville Center
02:30PM 32.6525 -78.0594 194° South 452 520 33,900 -60 Descending Jacksonville Center
02:31PM 32.5328 -78.0953 194° South 452 520 33,900  Level Jacksonville Center
02:32PM 32.4153 -78.1358 196° South 452 520 33,900  Level Jacksonville Center
02:33PM 32.2936 -78.1717 194° South 452 520 34,000  Climbing Jacksonville Center
02:34PM 32.1739 -78.2122 196° South 452 520 34,000  Level Jacksonville Center
02:35PM 32.0397 -78.2536 195° South 452 520 34,000 -60 Level Jacksonville Center
02:36PM 31.9222 -78.2889 194° South 452 520 33,900 -60 Descending Jacksonville Center
02:37PM 31.8025 -78.3289 196° South 452 520 33,900  Level Jacksonville Center
02:38PM 31.6808 -78.3692 196° South 447 514 33,900  Level Jacksonville Center
02:39PM 31.5611 -78.4067 195° South 453 521 34,000  Climbing Jacksonville Center
02:40PM 31.4433 -78.4439 195° South 438 504 34,000 -60 Level Jacksonville Center
02:41PM 31.3217 -78.4861 197° South 459 528 33,900 -60 Descending Jacksonville Center
02:42PM 31.2039 -78.5183 193° South 451 519 33,900  Level Jacksonville Center
02:43PM 31.0819 -78.5581 196° South 451 519 33,900  Level Jacksonville Center
02:44PM 30.9744 -78.5897 194° South 451 519 33,900  Level Jacksonville Center
02:45PM 30.8547 -78.6289 196° South 451 519 34,000  Climbing Jacksonville Center
02:46PM 30.7372 -78.6681 196° South 449 517 34,000 -60 Level Jacksonville Center
02:47PM 30.5511 -78.7250 195° South 446 513 33,900  Descending Miami Center
02:48PM 30.4353 -78.7689 198° South 446 513 34,000  Climbing Miami Center
02:49PM 30.3142 -78.8100 196° South 446 513 33,900 -60 Descending Miami Center
02:50PM 30.1928 -78.8381 191° South 446 513 33,900  Level Miami Center
02:51PM 30.0503 -78.8711 191° South 439 505 33,900  Level Miami Center
02:52PM 29.9289 -78.8975 191° South 446 513 34,000  Climbing Miami Center
02:53PM 29.8072 -78.9250 191° South 446 513 33,900 -60 Descending Miami Center
02:55PM 29.6864 -78.9522 191° South 445 512 33,900  Level Miami Center
02:56PM 29.5636 -78.9803 191° South 445 512 33,900  Level Miami Center
02:57PM 29.4436 -79.0064 191° South 445 512 33,900  Level Miami Center
02:58PM 29.3203 -79.0344 191° South 445 512 33,900  Level Miami Center
02:59PM 29.1736 -79.0661 191° South 445 512 34,000  Climbing Miami Center
03:00PM 29.0536 -79.0925 191° South 445 512 34,000  Level Miami Center
03:01PM 28.9328 -79.1203 191° South 445 512 34,000  Level Miami Center
03:02PM 28.8111 -79.1464 191° South 445 512 34,000 -60 Level Miami Center
03:03PM 28.6903 -79.1739 191° South 444 511 33,900 -60 Descending Miami Center
03:04PM 28.5669 -79.1994 190° South 448 516 33,900 -540 Level Miami Center
03:05PM 28.4447 -79.2256 191° South 447 514 32,900 -1,680 Descending Miami Center
03:06PM 28.3281 -79.2525 191° South 431 496 30,500 -2,580 Descending Miami Center
03:07PM 28.1925 -79.2808 190° South 414 476 27,700 -2,640 Descending Miami Center
03:08PM 28.0842 -79.3050 191° South 397 457 25,100 -2,100 Descending Miami Center
03:09PM 27.9819 -79.3417 198° South 389 448 23,400 -1,440 Descending Miami Center
03:10PM 27.8969 -79.3967 210° Southwest 354 407 22,200 -1,080 Descending Miami Center
03:11PM 27.8039 -79.4564 210° Southwest 355 409 21,300 -1,080 Descending Miami Center
03:12PM 27.7083 -79.5175 210° Southwest 373 429 20,100 -1,620 Descending Miami Center
03:13PM 27.6133 -79.5769 209° Southwest 375 432 18,000 -2,040 Descending Miami Center
03:14PM 27.5214 -79.6344 209° Southwest 356 410 15,900 -1,920 Descending Miami Center
03:15PM 27.4411 -79.6850 209° Southwest 345 397 14,100 -1,860 Descending Miami Center
03:16PM 27.3578 -79.7386 210° Southwest 333 383 12,100 -1,740 Descending Miami Center
03:17PM 27.2769 -79.7897 209° Southwest 323 372 10,600 -1,440 Descending Miami Center
03:18PM 27.2025 -79.8358 209° Southwest 294 338 9,200 -1,440 Descending Miami Center
03:19PM 27.1367 -79.8772 209° Southwest 287 330 7,700 -1,560 Descending Miami Center
03:20PM 27.0653 -79.9178 207° Southwest 279 321 6,000 -1,560 Descending Miami Center
03:21PM 26.9953 -79.9578 207° Southwest 273 314 4,500 -1,020 Descending Miami Center
03:22PM 26.9278 -80.0025 211° Southwest 267 307 4,000 -300 Descending Miami Center
03:23PM 26.8669 -80.0556 218° Southwest 270 311 4,000  Level Miami Center
03:24PM 26.8114 -80.1044 218° Southwest 266 306 4,000 -420 Level Miami Center
03:25PM 26.8014 -80.1792 261° West 234 269 3,200 -840 Descending Miami Center
03:26PM 26.7847 -80.2411 253° West 221 254 2,300 -660 Descending Miami Center
03:27PM 26.7256 -80.2450 183° South 200 230 1,900 -360 Descending Miami Center
03:28PM 26.6875 -80.2094 140° Southeast 180 207 1,600 -420 Descending Miami Center
03:29PM 26.6850 -80.1611 93° East 144 166 1,100 -300 Descending Miami Center
03:30PM 26.6850 -80.1172 90° East 142 163 1,000 -120 Descending Miami Center
03:32PM 26.6832 -80.0956 110° East  Level Estimated